In Rescue
 
Open Full Screen Window  High Contrast Mode
Wind Gusting 00 knots
08
April 19, 2021 9:34 PM EDT
Weather Information
Wind Direction
  270 °
Wind Speed
  08 kt (9 mph)
Wind Gust
  00 kt (0 mph)
Altimeter
29.89 in
Visibility
10 SM
Temperature
04° C
39° F
Dewpoint
-01° C
30° F
Humidity
70%
Sky Condition
Overcast @ 9,500 ft
VFR

METAR KTEW 200134Z AUTO 27008KT 10SM OVC095 04/M01 A2989 RMK AO2 T00421011

FAA Disclaimer: The data displayed is for advisory purposes only and is not to be used for flight planning or operations.